createdAt,value
2022-07-29T00:00:02.456Z,40.27
2022-07-29T00:02:29.471Z,40.47
2022-07-29T00:04:56.125Z,40.22
2022-07-29T00:07:22.657Z,40.57
2022-07-29T00:09:51.610Z,40.65
2022-07-29T00:12:25.058Z,40.50
2022-07-29T00:14:53.732Z,40.89
2022-07-29T00:17:20.389Z,40.65
2022-07-29T00:19:47.100Z,40.47
2022-07-29T00:22:13.637Z,40.64
2022-07-29T00:24:40.225Z,40.77
2022-07-29T00:30:53.794Z,40.54
2022-07-29T00:33:20.354Z,40.80
2022-07-29T00:35:48.752Z,40.47
2022-07-29T00:38:16.952Z,40.85
2022-07-29T00:40:44.191Z,41.19
2022-07-29T00:43:11.441Z,41.21
2022-07-29T00:45:38.164Z,40.97
2022-07-29T00:48:05.856Z,41.48
2022-07-29T00:50:33.425Z,41.43
2022-07-29T00:53:00.446Z,41.49
2022-07-29T00:55:27.120Z,41.14
2022-07-29T00:57:54.666Z,41.39
2022-07-29T01:00:25.644Z,41.36
2022-07-29T01:02:52.589Z,41.39
2022-07-29T01:05:21.310Z,41.51
2022-07-29T01:07:52.140Z,41.90
2022-07-29T01:10:20.838Z,41.67
2022-07-29T01:12:49.869Z,41.73
2022-07-29T01:15:17.013Z,42.07
2022-07-29T01:17:52.623Z,42.67
2022-07-29T01:20:31.565Z,42.61
2022-07-29T01:23:01.442Z,42.19
2022-07-29T01:25:44.404Z,42.05
2022-07-29T01:28:56.251Z,42.10
2022-07-29T01:31:36.579Z,42.48
2022-07-29T01:34:09.605Z,42.09
2022-07-29T01:36:44.159Z,42.35
2022-07-29T01:39:19.928Z,42.61
2022-07-29T01:42:21.820Z,42.06
2022-07-29T01:45:09.593Z,42.44
2022-07-29T01:47:42.902Z,42.73
2022-07-29T01:50:13.770Z,42.90
2022-07-29T01:53:01.926Z,42.46
2022-07-29T01:55:34.049Z,42.86
2022-07-29T01:58:04.129Z,42.84
2022-07-29T02:00:33.063Z,42.86
2022-07-29T02:03:03.589Z,42.68
2022-07-29T02:05:32.227Z,42.89
2022-07-29T02:08:00.281Z,42.86
2022-07-29T02:10:29.594Z,42.91
2022-07-29T02:12:58.242Z,43.26
2022-07-29T02:15:30.500Z,43.57
2022-07-29T02:18:10.483Z,43.21
2022-07-29T02:20:39.312Z,42.87
2022-07-29T02:23:07.997Z,42.71
2022-07-29T02:25:38.145Z,43.09
2022-07-29T02:28:07.674Z,43.30
2022-07-29T02:30:37.475Z,43.21
2022-07-29T02:33:05.625Z,43.17
2022-07-29T02:35:34.728Z,43.19
2022-07-29T02:38:22.414Z,43.34
2022-07-29T02:40:51.755Z,43.37
2022-07-29T02:43:19.616Z,43.35
2022-07-29T02:45:51.908Z,43.68
2022-07-29T02:48:23.303Z,43.90
2022-07-29T02:51:00.697Z,43.97
2022-07-29T02:53:29.161Z,43.56
2022-07-29T02:56:09.043Z,43.84
2022-07-29T02:58:43.602Z,43.81
2022-07-29T03:01:21.594Z,44.25
2022-07-29T03:03:50.766Z,43.85
2022-07-29T03:06:31.118Z,43.83
2022-07-29T03:09:10.436Z,43.63
2022-07-29T03:11:46.040Z,43.80
2022-07-29T03:14:20.536Z,43.90
2022-07-29T03:16:48.039Z,43.69
2022-07-29T03:19:15.513Z,44.17
2022-07-29T03:21:42.114Z,43.85
2022-07-29T03:24:12.830Z,44.12
2022-07-29T03:26:39.598Z,44.42
2022-07-29T03:29:06.110Z,44.32
2022-07-29T03:31:33.771Z,44.21
2022-07-29T03:34:00.907Z,44.50
2022-07-29T03:36:27.628Z,44.27
2022-07-29T03:38:54.457Z,44.29
2022-07-29T03:41:23.874Z,44.78
2022-07-29T03:43:52.711Z,44.96
2022-07-29T03:46:23.733Z,45.00
2022-07-29T03:48:55.645Z,44.76
2022-07-29T03:51:33.389Z,44.86
2022-07-29T03:54:06.405Z,45.03
2022-07-29T03:56:40.642Z,44.94
2022-07-29T03:59:08.655Z,44.99
2022-07-29T04:01:36.433Z,44.67
2022-07-29T04:04:03.672Z,45.03
2022-07-29T04:06:30.356Z,44.97
2022-07-29T04:08:57.017Z,45.17
2022-07-29T04:11:23.852Z,45.06
2022-07-29T04:13:50.438Z,45.24
2022-07-29T04:16:17.052Z,45.13
2022-07-29T04:18:43.692Z,45.02
2022-07-29T04:21:10.211Z,45.62
2022-07-29T04:23:36.790Z,45.30
2022-07-29T04:26:21.089Z,45.24
2022-07-29T04:28:47.831Z,45.67
2022-07-29T04:31:14.658Z,45.56
2022-07-29T04:33:41.299Z,45.51
2022-07-29T04:36:08.018Z,45.62
2022-07-29T04:38:54.488Z,45.48
2022-07-29T04:41:21.022Z,46.02
2022-07-29T04:43:48.001Z,46.07
2022-07-29T04:46:15.058Z,45.84
2022-07-29T04:48:41.662Z,46.18
2022-07-29T04:51:08.235Z,46.05
2022-07-29T04:53:34.747Z,46.00
2022-07-29T04:56:01.277Z,46.15
2022-07-29T04:58:27.786Z,46.13
2022-07-29T05:00:54.338Z,46.27
2022-07-29T05:03:21.023Z,46.36
2022-07-29T05:05:47.616Z,46.27
2022-07-29T05:08:14.222Z,46.28
2022-07-29T05:10:40.901Z,45.82
2022-07-29T05:13:08.538Z,45.93
2022-07-29T05:15:36.179Z,46.05
2022-07-29T05:18:03.411Z,45.92
2022-07-29T05:20:31.313Z,45.91
2022-07-29T05:23:02.374Z,46.52
2022-07-29T05:25:42.062Z,46.34
2022-07-29T05:28:10.666Z,45.91
2022-07-29T05:30:37.315Z,46.26
2022-07-29T05:33:03.971Z,46.32
2022-07-29T05:35:30.512Z,46.04
2022-07-29T05:37:57.071Z,46.25
2022-07-29T05:40:23.723Z,46.53
2022-07-29T05:42:50.254Z,46.25
2022-07-29T05:45:16.743Z,45.63
2022-07-29T05:47:43.298Z,45.79
2022-07-29T05:50:10.066Z,45.94
2022-07-29T05:56:24.394Z,45.80
2022-07-29T05:58:50.961Z,45.54
2022-07-29T06:01:17.682Z,45.85
2022-07-29T06:03:44.367Z,45.81
2022-07-29T06:06:11.171Z,45.80
2022-07-29T06:08:39.516Z,45.19
2022-07-29T06:11:06.333Z,45.33
2022-07-29T06:13:33.022Z,45.37
2022-07-29T06:15:59.696Z,45.07
2022-07-29T06:18:26.822Z,45.50
2022-07-29T06:20:54.541Z,45.22
2022-07-29T06:23:21.913Z,45.21
2022-07-29T06:25:49.492Z,45.13
2022-07-29T06:28:16.288Z,45.18
2022-07-29T06:30:42.933Z,45.31
2022-07-29T06:33:09.885Z,45.19
2022-07-29T06:35:38.501Z,44.99
2022-07-29T06:38:19.678Z,45.56
2022-07-29T06:41:01.803Z,44.87
2022-07-29T06:43:32.535Z,44.68
2022-07-29T06:46:03.945Z,45.18
2022-07-29T06:48:30.769Z,44.72
2022-07-29T06:50:57.547Z,44.46
2022-07-29T06:53:24.550Z,44.85
2022-07-29T06:55:51.677Z,44.83
2022-07-29T06:58:21.288Z,45.02
2022-07-29T07:00:49.374Z,45.22
2022-07-29T07:03:17.120Z,44.92
2022-07-29T07:05:44.149Z,45.03
2022-07-29T07:08:10.885Z,45.29
2022-07-29T07:10:37.899Z,45.00
2022-07-29T07:13:05.544Z,45.23
2022-07-29T07:15:39.784Z,45.07
2022-07-29T07:18:07.544Z,44.95
2022-07-29T07:20:35.321Z,45.29
2022-07-29T07:23:02.057Z,45.36
2022-07-29T07:25:28.968Z,44.96
2022-07-29T07:27:55.664Z,45.02
2022-07-29T07:30:22.388Z,45.30
2022-07-29T07:32:49.292Z,44.99
2022-07-29T07:35:15.961Z,44.89
2022-07-29T07:37:42.842Z,44.52
2022-07-29T07:40:12.619Z,44.57
2022-07-29T07:42:45.436Z,44.48
2022-07-29T07:45:13.911Z,44.57
2022-07-29T07:47:42.914Z,44.69
2022-07-29T07:50:17.980Z,44.24
2022-07-29T07:52:54.418Z,44.18
2022-07-29T07:55:21.183Z,44.18
2022-07-29T07:57:48.463Z,44.01
2022-07-29T08:00:16.841Z,44.46
2022-07-29T08:02:46.621Z,44.30
2022-07-29T08:05:17.851Z,44.16
2022-07-29T08:07:46.457Z,44.58
2022-07-29T08:10:37.026Z,44.15
2022-07-29T08:13:05.787Z,44.07
2022-07-29T08:15:32.522Z,44.09
2022-07-29T08:17:59.575Z,43.92
2022-07-29T08:20:26.758Z,44.03
2022-07-29T08:22:54.605Z,43.96
2022-07-29T08:25:21.688Z,44.40
2022-07-29T08:27:48.733Z,44.03
2022-07-29T08:30:15.454Z,44.52
2022-07-29T08:32:57.324Z,44.15
2022-07-29T08:35:24.908Z,44.07
2022-07-29T08:37:53.026Z,44.33
2022-07-29T08:40:30.477Z,44.22
2022-07-29T08:42:58.955Z,44.20
2022-07-29T08:45:26.341Z,43.80
2022-07-29T08:47:53.719Z,43.72
2022-07-29T08:50:20.317Z,43.77
2022-07-29T08:52:48.097Z,43.30
2022-07-29T08:55:16.777Z,43.36
2022-07-29T08:57:54.132Z,43.45
2022-07-29T09:00:22.401Z,43.42
2022-07-29T09:02:56.940Z,43.00
2022-07-29T09:05:25.837Z,42.94
2022-07-29T09:07:52.980Z,42.80
2022-07-29T09:10:19.712Z,42.88
2022-07-29T09:12:46.813Z,42.71
2022-07-29T09:15:13.437Z,43.14
2022-07-29T09:17:49.323Z,43.08
2022-07-29T09:20:21.474Z,42.93
2022-07-29T09:22:50.335Z,42.87
2022-07-29T09:25:36.936Z,43.04
2022-07-29T09:28:11.577Z,43.11
2022-07-29T09:30:57.741Z,43.21
2022-07-29T09:33:25.665Z,42.76
2022-07-29T09:36:10.583Z,42.63
2022-07-29T09:38:38.391Z,42.63
2022-07-29T09:41:07.323Z,42.65
2022-07-29T09:43:34.596Z,42.51
2022-07-29T09:46:12.743Z,42.46
2022-07-29T09:48:39.471Z,42.51
2022-07-29T09:51:07.503Z,42.17
2022-07-29T09:53:38.138Z,42.22
2022-07-29T09:56:05.893Z,42.29
2022-07-29T09:58:35.822Z,42.08
2022-07-29T10:01:02.772Z,41.84
2022-07-29T10:03:29.448Z,41.92
2022-07-29T10:06:10.948Z,41.79
2022-07-29T10:08:38.974Z,41.90
2022-07-29T10:11:14.979Z,42.30
2022-07-29T10:13:43.982Z,42.69
2022-07-29T10:16:11.840Z,42.94
2022-07-29T10:18:44.823Z,43.54
2022-07-29T10:21:22.523Z,43.86
2022-07-29T10:24:01.315Z,44.13
2022-07-29T10:26:29.280Z,44.08
2022-07-29T10:28:56.806Z,44.53
2022-07-29T10:31:56.874Z,45.88
2022-07-29T10:34:52.563Z,46.73
2022-07-29T10:37:55.091Z,47.19
2022-07-29T10:41:06.770Z,47.58
2022-07-29T10:43:42.371Z,47.80
2022-07-29T10:46:10.047Z,48.09
2022-07-29T10:49:09.101Z,48.93
2022-07-29T10:51:51.425Z,49.33
2022-07-29T10:54:19.398Z,49.13
2022-07-29T10:56:46.818Z,49.43
2022-07-29T10:59:36.437Z,49.66
2022-07-29T11:02:35.315Z,48.93
2022-07-29T11:04:50.333Z,49.49
2022-07-29T11:07:17.526Z,49.87
2022-07-29T11:09:46.501Z,49.53
2022-07-29T11:12:42.646Z,49.57
2022-07-29T11:15:25.058Z,49.87
2022-07-29T11:17:54.907Z,49.35
2022-07-29T11:20:49.678Z,49.53
2022-07-29T11:23:33.976Z,50.27
2022-07-29T11:26:10.882Z,50.76
2022-07-29T11:28:53.298Z,50.66
2022-07-29T11:31:33.702Z,50.96
2022-07-29T11:34:28.242Z,50.89
2022-07-29T11:37:08.744Z,51.13
2022-07-29T11:39:43.091Z,50.83
2022-07-29T11:42:32.681Z,51.28
2022-07-29T11:45:44.050Z,50.56
2022-07-29T11:48:29.466Z,50.70
2022-07-29T11:50:48.529Z,50.40
2022-07-29T11:53:16.096Z,50.70
2022-07-29T11:58:30.395Z,50.72
2022-07-29T12:00:58.596Z,50.80
2022-07-29T12:03:35.601Z,50.80
2022-07-29T12:06:13.155Z,50.77
2022-07-29T12:08:43.867Z,50.50
2022-07-29T12:11:22.863Z,50.60
2022-07-29T12:13:51.929Z,50.32
2022-07-29T12:16:25.627Z,50.21
2022-07-29T12:19:00.797Z,50.19
2022-07-29T12:21:29.453Z,49.45
2022-07-29T12:24:01.883Z,49.52
2022-07-29T12:26:34.244Z,49.56
2022-07-29T12:29:03.213Z,49.57
2022-07-29T12:31:43.589Z,49.41
2022-07-29T12:34:13.143Z,49.71
2022-07-29T12:36:40.369Z,49.66
2022-07-29T12:39:07.200Z,50.12
2022-07-29T12:41:33.873Z,49.46
2022-07-29T12:44:00.416Z,50.33
2022-07-29T12:46:27.572Z,50.60
2022-07-29T12:48:56.071Z,51.07
2022-07-29T12:51:38.763Z,51.11
2022-07-29T12:54:11.610Z,51.27
2022-07-29T12:56:44.072Z,51.24
2022-07-29T12:59:18.731Z,50.26
2022-07-29T13:01:49.023Z,50.88
2022-07-29T13:04:55.733Z,50.76
2022-07-29T13:07:54.902Z,50.98
2022-07-29T13:10:24.148Z,50.80
2022-07-29T13:13:06.501Z,51.38
2022-07-29T13:15:34.169Z,51.70
2022-07-29T13:18:01.121Z,51.30
2022-07-29T13:20:32.501Z,51.32
2022-07-29T13:23:03.428Z,51.04
2022-07-29T13:25:32.650Z,51.57
2022-07-29T13:28:00.533Z,51.35
2022-07-29T13:30:27.310Z,50.85
2022-07-29T13:32:54.152Z,50.20
2022-07-29T13:35:21.636Z,50.29
2022-07-29T13:37:48.576Z,49.88
2022-07-29T13:40:18.623Z,49.82
2022-07-29T13:42:45.470Z,49.76
2022-07-29T13:45:14.503Z,49.91
2022-07-29T13:47:45.993Z,49.81
2022-07-29T13:50:15.930Z,50.22
2022-07-29T13:52:42.550Z,49.54
2022-07-29T13:55:09.453Z,49.33
2022-07-29T13:57:36.561Z,49.74
2022-07-29T14:00:03.722Z,49.84
2022-07-29T14:02:30.454Z,49.30
2022-07-29T14:04:57.105Z,50.25
2022-07-29T14:07:23.835Z,49.88
2022-07-29T14:09:51.143Z,50.17
2022-07-29T14:12:17.752Z,51.08
2022-07-29T14:14:44.392Z,50.54
2022-07-29T14:17:13.904Z,50.86
2022-07-29T14:19:40.560Z,50.84
2022-07-29T14:22:09.578Z,51.11
2022-07-29T14:24:38.035Z,51.25
2022-07-29T14:27:06.234Z,50.99
2022-07-29T14:29:36.828Z,50.45
2022-07-29T14:32:09.181Z,50.98
2022-07-29T14:34:37.632Z,50.02
2022-07-29T14:37:06.587Z,49.78
2022-07-29T14:39:36.952Z,49.48
2022-07-29T14:42:06.323Z,49.42
2022-07-29T14:44:33.001Z,49.64
2022-07-29T14:47:01.113Z,49.37
2022-07-29T14:49:34.533Z,49.49
2022-07-29T14:52:01.369Z,49.55
2022-07-29T14:54:28.140Z,49.10
2022-07-29T14:56:57.971Z,48.54
2022-07-29T14:59:25.059Z,48.40
2022-07-29T15:01:51.702Z,48.93
2022-07-29T15:04:18.502Z,49.06
2022-07-29T15:06:45.150Z,48.65
2022-07-29T15:09:11.810Z,48.51
2022-07-29T15:11:38.961Z,46.34
2022-07-29T15:14:07.225Z,45.83
2022-07-29T15:16:39.341Z,44.44
2022-07-29T15:19:11.713Z,45.13
2022-07-29T15:21:48.393Z,44.13
2022-07-29T15:24:24.142Z,41.38
2022-07-29T15:26:51.337Z,41.67
2022-07-29T15:29:18.049Z,40.42
2022-07-29T15:31:45.305Z,39.90
2022-07-29T15:34:12.263Z,38.88
2022-07-29T15:36:55.765Z,37.22
2022-07-29T15:39:37.554Z,36.73
2022-07-29T15:42:10.530Z,36.47
2022-07-29T15:44:37.290Z,35.42
2022-07-29T15:47:04.213Z,35.38
2022-07-29T15:49:48.559Z,35.26
2022-07-29T15:52:26.251Z,35.60
2022-07-29T15:54:57.053Z,35.05
2022-07-29T15:57:25.187Z,35.38
2022-07-29T15:59:52.451Z,35.90
2022-07-29T16:02:24.874Z,36.34
2022-07-29T16:04:54.887Z,36.12
2022-07-29T16:07:22.104Z,36.77
2022-07-29T16:09:53.321Z,36.77
2022-07-29T16:12:20.988Z,37.39
2022-07-29T16:14:50.374Z,37.44
2022-07-29T16:17:20.137Z,37.54
2022-07-29T16:19:47.682Z,37.79
2022-07-29T16:22:24.901Z,37.99
2022-07-29T16:25:00.456Z,37.87
2022-07-29T16:27:37.711Z,37.99
2022-07-29T16:30:08.673Z,38.78
2022-07-29T16:32:36.203Z,38.58
2022-07-29T16:35:05.564Z,39.04
2022-07-29T16:37:36.061Z,39.00
2022-07-29T16:40:11.570Z,39.22
2022-07-29T16:42:47.572Z,38.81
2022-07-29T16:45:16.327Z,39.02
2022-07-29T16:47:45.174Z,38.87
2022-07-29T16:50:12.568Z,38.82
2022-07-29T16:52:40.062Z,38.89
2022-07-29T16:55:07.286Z,39.30
2022-07-29T16:57:33.834Z,39.45
2022-07-29T17:00:00.487Z,39.04
2022-07-29T17:02:27.143Z,39.39
2022-07-29T17:04:53.829Z,39.21
2022-07-29T17:07:20.397Z,39.67
2022-07-29T17:09:46.952Z,39.31
2022-07-29T17:12:13.644Z,39.29
2022-07-29T17:14:42.642Z,39.78
2022-07-29T17:17:12.249Z,40.05
2022-07-29T17:19:40.434Z,40.11
2022-07-29T17:22:13.095Z,39.88
2022-07-29T17:24:42.651Z,39.92
2022-07-29T17:27:10.414Z,39.81
2022-07-29T17:29:37.774Z,39.63
2022-07-29T17:32:07.853Z,39.51
2022-07-29T17:34:36.587Z,39.62
2022-07-29T17:37:04.560Z,39.81
2022-07-29T17:39:31.197Z,39.75
2022-07-29T17:41:57.754Z,39.53
2022-07-29T17:44:24.346Z,39.66
2022-07-29T17:46:50.943Z,39.80
2022-07-29T17:49:18.475Z,39.53
2022-07-29T17:51:45.200Z,39.45
2022-07-29T17:54:11.973Z,39.40
2022-07-29T17:56:38.641Z,39.41
2022-07-29T17:59:08.526Z,39.66
2022-07-29T18:01:35.502Z,39.41
2022-07-29T18:04:02.918Z,39.43
2022-07-29T18:06:29.818Z,39.77
2022-07-29T18:08:56.745Z,40.16
2022-07-29T18:11:23.610Z,40.52
2022-07-29T18:13:50.260Z,40.54
2022-07-29T18:16:17.142Z,40.39
2022-07-29T18:18:44.969Z,40.98
2022-07-29T18:21:11.975Z,41.08
2022-07-29T18:23:38.920Z,41.18
2022-07-29T18:26:05.563Z,41.25
2022-07-29T18:28:35.219Z,41.13
2022-07-29T18:31:02.529Z,41.60
2022-07-29T18:33:29.253Z,41.26
2022-07-29T18:36:11.562Z,41.59
2022-07-29T18:38:40.224Z,41.64
2022-07-29T18:41:07.177Z,41.74
2022-07-29T18:43:33.772Z,41.42
2022-07-29T18:46:00.354Z,41.86
2022-07-29T18:48:26.994Z,41.84
2022-07-29T18:50:53.629Z,42.34
2022-07-29T18:53:20.305Z,42.14
2022-07-29T18:55:46.902Z,42.47
2022-07-29T18:58:13.499Z,42.82
2022-07-29T19:00:40.185Z,42.87
2022-07-29T19:03:08.306Z,43.26
2022-07-29T19:05:35.005Z,42.89
2022-07-29T19:08:01.821Z,43.21
2022-07-29T19:10:29.291Z,43.19
2022-07-29T19:12:56.870Z,43.55
2022-07-29T19:15:23.799Z,44.08
2022-07-29T19:17:50.547Z,44.75
2022-07-29T19:20:17.500Z,44.79
2022-07-29T19:22:44.199Z,44.84
2022-07-29T19:25:10.795Z,45.13
2022-07-29T19:27:37.395Z,45.16
2022-07-29T19:30:06.541Z,45.08
2022-07-29T19:32:33.194Z,45.69
2022-07-29T19:35:18.079Z,45.40
2022-07-29T19:37:44.616Z,45.93
2022-07-29T19:40:12.320Z,45.84
2022-07-29T19:42:39.019Z,46.41
2022-07-29T19:45:10.275Z,46.00
2022-07-29T19:47:39.021Z,46.02
2022-07-29T19:50:06.846Z,45.96
2022-07-29T19:52:33.631Z,45.89
2022-07-29T19:55:07.125Z,46.76
2022-07-29T19:57:41.063Z,47.33
2022-07-29T20:00:11.273Z,47.24
2022-07-29T20:02:40.138Z,47.71
2022-07-29T20:05:08.020Z,47.13
2022-07-29T20:07:35.737Z,47.71
2022-07-29T20:10:02.833Z,47.19
2022-07-29T20:12:29.636Z,47.28
2022-07-29T20:14:56.430Z,47.61
2022-07-29T20:17:25.075Z,47.41
2022-07-29T20:19:53.093Z,47.21
2022-07-29T20:22:20.814Z,47.23
2022-07-29T20:24:48.385Z,47.12
2022-07-29T20:27:15.019Z,47.21
2022-07-29T20:29:42.021Z,47.04
2022-07-29T20:32:08.607Z,47.14
2022-07-29T20:34:35.370Z,46.72
2022-07-29T20:37:02.689Z,46.69
2022-07-29T20:39:30.437Z,46.97
2022-07-29T20:41:58.071Z,47.19
2022-07-29T20:44:24.864Z,47.01
2022-07-29T20:46:51.452Z,46.50
2022-07-29T20:49:18.202Z,46.44
2022-07-29T20:51:44.842Z,47.00
2022-07-29T20:54:12.109Z,47.18
2022-07-29T20:56:39.267Z,46.88
2022-07-29T20:59:05.852Z,47.00
2022-07-29T21:01:32.572Z,46.95
2022-07-29T21:04:00.324Z,46.93
2022-07-29T21:06:27.106Z,46.79
2022-07-29T21:08:55.819Z,47.46
2022-07-29T21:11:43.458Z,47.73
2022-07-29T21:14:09.264Z,47.75
2022-07-29T21:16:35.966Z,48.05
2022-07-29T21:19:02.651Z,48.18
2022-07-29T21:21:29.458Z,48.48
2022-07-29T21:23:56.134Z,48.99
2022-07-29T21:26:22.726Z,48.90
2022-07-29T21:28:50.528Z,49.56
2022-07-29T21:31:17.382Z,49.87
2022-07-29T21:33:47.516Z,50.36
2022-07-29T21:36:46.708Z,49.64
2022-07-29T21:39:07.192Z,49.95
2022-07-29T21:41:34.788Z,50.55
2022-07-29T21:44:01.539Z,50.61
2022-07-29T21:46:28.308Z,50.54
2022-07-29T21:48:55.074Z,50.83
2022-07-29T21:51:21.775Z,50.44
2022-07-29T21:53:48.375Z,50.54
2022-07-29T21:56:15.300Z,50.78
2022-07-29T21:58:44.543Z,50.59
2022-07-29T22:01:11.328Z,51.01
2022-07-29T22:03:37.997Z,50.72
2022-07-29T22:06:04.718Z,50.75
2022-07-29T22:08:31.263Z,50.89
2022-07-29T22:10:57.868Z,51.21
2022-07-29T22:13:24.481Z,51.20
2022-07-29T22:15:51.138Z,51.43
2022-07-29T22:18:20.661Z,51.43
2022-07-29T22:20:48.890Z,51.35
2022-07-29T22:23:15.448Z,51.60
2022-07-29T22:25:42.083Z,51.64
2022-07-29T22:28:08.656Z,51.82
2022-07-29T22:30:35.372Z,51.87
2022-07-29T22:33:01.985Z,51.75
2022-07-29T22:35:28.786Z,51.61
2022-07-29T22:37:55.365Z,51.83
2022-07-29T22:40:22.062Z,51.78
2022-07-29T22:42:48.714Z,51.85
2022-07-29T22:45:15.297Z,52.05
2022-07-29T22:47:48.337Z,51.88
2022-07-29T22:50:16.123Z,51.94
2022-07-29T22:52:42.676Z,52.64
2022-07-29T22:55:09.671Z,52.31
2022-07-29T22:57:36.341Z,52.54
2022-07-29T23:00:04.891Z,52.64
2022-07-29T23:02:31.506Z,52.76
2022-07-29T23:04:58.133Z,52.52
2022-07-29T23:07:24.752Z,52.88
2022-07-29T23:09:51.351Z,52.75
2022-07-29T23:12:17.949Z,52.95
2022-07-29T23:14:44.546Z,53.29
2022-07-29T23:17:11.170Z,53.46
2022-07-29T23:19:37.835Z,53.57
2022-07-29T23:22:04.848Z,53.64
2022-07-29T23:24:32.616Z,53.82
2022-07-29T23:26:59.433Z,54.15
2022-07-29T23:29:26.747Z,53.99
2022-07-29T23:31:54.251Z,53.66
2022-07-29T23:34:20.828Z,53.88
2022-07-29T23:36:47.479Z,53.78
2022-07-29T23:39:14.116Z,53.76
2022-07-29T23:41:41.129Z,53.87
2022-07-29T23:44:07.835Z,54.11
2022-07-29T23:46:34.797Z,53.82
2022-07-29T23:49:01.563Z,53.80
2022-07-29T23:51:29.406Z,53.84
2022-07-29T23:53:56.972Z,53.57
2022-07-29T23:56:24.082Z,53.79
2022-07-29T23:58:50.687Z,53.62
